CYRQ

Details ICAO CYRQ (YRQ)
Name TROIS RIVIERES
Region Canada
Timezone America/Montreal (UTC-5.0)
Plans Departing 25
Arriving 18
Stats Elevation 199 ft / 61 m (AMSL)
Location 46.352741° -72.679441°
Runways 1
Magnetic Variation 15.122° W
Sunrise 2017-12-11 12:25:33 UTC / 2017-12-11 07:25:33 Local
Sunset 2017-12-11 21:05:30 UTC / 2017-12-11 16:05:30 Local
Advertisement - Login to hide

Runways

ID Width Length Bearing (true) Bearing (mag) Surface Threshold Offset Overrun Length
05 150 ft / 46 m 6,001 ft / 1,829 m 31.33° 46.45° Asphalt 0 ft / 0 m 300 ft / 91 m
23 150 ft / 46 m 6,001 ft / 1,829 m 211.34° 226.46° Asphalt 0 ft / 0 m 300 ft / 91 m

Map

Weather


0- 5 10 15 20 25 30 35+ Temperature / ° C

Clouds and Precipitation
Forecast for 2017-12-11 12:00 UTC. Updated 2 hours ago

Ground ~20,000 ft ~40,000 ft Winds

METAR

CYRQ 111300Z AUTO 32004KT 9SM CLR M17/M20 A2999 RMK SLP164

TAF

TAF CYRQ 110738Z 1108/1120 01005KT P6SM -SN SCT015 BKN040 TEMPO 1108/1111 4SM -SN BKN015 FM111100 36010KT P6SM SCT050 FM111700 30012KT P6SM SKC RMK FCST BASED ON AUTO OBS. NXT FCST BY 111400Z

Frequencies

Unicom 123.00 MHz MF/UNICOM
Warning: Do not use this data for real-world aviation or navigation. No guarantee of current accuracy is given.